Kezdőlap
METAR-TAF:

METAR-TAF

Repülőterek :

Utsunomiya, Japán

földrajzi szélesség: 36-31N, földrajzi hosszúság: 139-52E, magasság: 102 m

Jelenlegi meteorológiai megfigyelések

A jelentés 13 órával és 32 perccel ezelõtt készült, 05:43 UTC
Észak-északkeleti szél 7 kt, északi és kelet-északkeleti között változik
Hőmérséklet 23°C
Páratartalom 73%
Légköri nyomás 1004 hPa
Látótávolság 10 km, vagy több
Kevés felhő 1500 lábon
Szórványos felhőzet 2000 lábon
Szakadozott felhőzet 22000 lábon

METAR: RJTU 090543Z 03007KT 360V070 9999 FEW015 SCT020 BKN220 23/18 Q1004 RMK 1CU015 3CU020 6CI220 A2965

Idő: 04:15 (19:15 UTC)


TAF: hiányzik

Meteorológiai megfigyelések és előrejelzések több, mint 4000 repülőtéren (METAR és TAF jelentéseket).

A térképen piros és sárga pontok jelzik az elérhető meteorológiai állomásokat.

Mozgassa az egeret a pont fölött, hogy megjelenjen az állomás neve.

Azután kattintson az időjárási megfigyelések és előrejelzések megtekintéséhez.

A térkép megváltoztatása: kattintson a fekete keresztel jelölt zöld gombra ráközelítéshez, a vonallal jelölt zöld gombra távolításhoz, vagy a zöld nyilakra a szomszédos térképek eléréséhez.


METAR-TAF: